sensor_id;sensor_type;location;lat;lon;timestamp;pressure;altitude;pressure_sealevel;temperature;humidity
34374;BME280;20637;55.770;37.592;2024-03-02T00:00:51;100991.53;;;5.15;71.67
34374;BME280;20637;55.770;37.592;2024-03-02T00:03:18;100981.50;;;5.18;71.78
34374;BME280;20637;55.770;37.592;2024-03-02T00:05:49;100985.81;;;5.21;71.61
34374;BME280;20637;55.770;37.592;2024-03-02T00:08:22;100980.44;;;5.21;71.31
34374;BME280;20637;55.770;37.592;2024-03-02T00:10:48;100982.34;;;5.19;71.58
34374;BME280;20637;55.770;37.592;2024-03-02T00:13:14;100978.81;;;5.18;71.39
34374;BME280;20637;55.770;37.592;2024-03-02T00:15:41;100972.72;;;5.16;71.57
34374;BME280;20637;55.770;37.592;2024-03-02T00:18:12;100974.53;;;5.16;71.38
34374;BME280;20637;55.770;37.592;2024-03-02T00:20:38;100973.47;;;5.18;71.51
34374;BME280;20637;55.770;37.592;2024-03-02T00:23:08;100975.47;;;5.15;71.18
34374;BME280;20637;55.770;37.592;2024-03-02T00:25:41;100964.41;;;5.07;71.43
34374;BME280;20637;55.770;37.592;2024-03-02T00:28:17;100969.88;;;5.05;71.64
34374;BME280;20637;55.770;37.592;2024-03-02T00:33:23;100977.06;;;5.05;71.17
34374;BME280;20637;55.770;37.592;2024-03-02T00:35:49;100971.06;;;5.01;71.63
34374;BME280;20637;55.770;37.592;2024-03-02T00:38:15;100972.22;;;4.97;71.42
34374;BME280;20637;55.770;37.592;2024-03-02T00:40:44;100976.50;;;5.00;71.33
34374;BME280;20637;55.770;37.592;2024-03-02T00:43:38;100972.75;;;5.02;71.28
34374;BME280;20637;55.770;37.592;2024-03-02T00:46:06;100970.94;;;5.03;71.70
34374;BME280;20637;55.770;37.592;2024-03-02T00:48:33;100973.44;;;5.06;71.83
34374;BME280;20637;55.770;37.592;2024-03-02T00:51:03;100976.94;;;5.06;71.31
34374;BME280;20637;55.770;37.592;2024-03-02T00:53:32;100983.16;;;5.07;71.57
34374;BME280;20637;55.770;37.592;2024-03-02T00:55:59;100976.94;;;5.06;71.27
34374;BME280;20637;55.770;37.592;2024-03-02T00:58:26;100978.66;;;5.07;71.50
34374;BME280;20637;55.770;37.592;2024-03-02T01:00:51;100983.81;;;5.10;71.79
34374;BME280;20637;55.770;37.592;2024-03-02T01:03:17;100981.91;;;5.12;71.93
34374;BME280;20637;55.770;37.592;2024-03-02T01:05:44;100991.66;;;5.13;71.57
34374;BME280;20637;55.770;37.592;2024-03-02T01:08:10;100984.47;;;5.14;71.87
34374;BME280;20637;55.770;37.592;2024-03-02T01:10:36;100986.19;;;5.15;71.53
34374;BME280;20637;55.770;37.592;2024-03-02T01:13:02;100994.13;;;5.16;71.67
34374;BME280;20637;55.770;37.592;2024-03-02T01:15:28;100997.47;;;5.20;71.42
34374;BME280;20637;55.770;37.592;2024-03-02T01:17:53;100993.84;;;5.21;71.52
34374;BME280;20637;55.770;37.592;2024-03-02T01:20:19;100994.78;;;5.20;71.45
34374;BME280;20637;55.770;37.592;2024-03-02T01:22:45;100992.09;;;5.20;71.33
34374;BME280;20637;55.770;37.592;2024-03-02T01:25:11;100995.53;;;5.22;71.48
34374;BME280;20637;55.770;37.592;2024-03-02T01:27:37;100999.06;;;5.22;71.71
34374;BME280;20637;55.770;37.592;2024-03-02T01:30:02;100994.78;;;5.20;71.59
34374;BME280;20637;55.770;37.592;2024-03-02T01:32:29;100992.31;;;5.17;71.68
34374;BME280;20637;55.770;37.592;2024-03-02T01:34:55;100987.06;;;5.15;71.26
34374;BME280;20637;55.770;37.592;2024-03-02T01:37:20;100992.59;;;5.12;71.49
34374;BME280;20637;55.770;37.592;2024-03-02T01:39:46;100991.75;;;5.12;71.19
34374;BME280;20637;55.770;37.592;2024-03-02T01:42:12;100993.56;;;5.11;71.22
34374;BME280;20637;55.770;37.592;2024-03-02T01:44:37;100988.22;;;5.11;71.04
34374;BME280;20637;55.770;37.592;2024-03-02T01:47:03;100993.34;;;5.14;71.43
34374;BME280;20637;55.770;37.592;2024-03-02T01:49:29;100997.00;;;5.13;71.37
34374;BME280;20637;55.770;37.592;2024-03-02T01:51:54;100984.28;;;5.17;71.34
34374;BME280;20637;55.770;37.592;2024-03-02T01:54:20;100990.38;;;5.19;71.17
34374;BME280;20637;55.770;37.592;2024-03-02T01:56:46;100983.00;;;5.22;71.58
34374;BME280;20637;55.770;37.592;2024-03-02T01:59:12;100995.53;;;5.22;71.36
34374;BME280;20637;55.770;37.592;2024-03-02T02:01:39;100993.84;;;5.21;71.17
34374;BME280;20637;55.770;37.592;2024-03-02T02:04:05;100988.34;;;5.22;70.96
34374;BME280;20637;55.770;37.592;2024-03-02T02:06:32;101000.78;;;5.23;71.06
34374;BME280;20637;55.770;37.592;2024-03-02T02:08:58;101000.00;;;5.21;70.65
34374;BME280;20637;55.770;37.592;2024-03-02T02:11:24;100995.44;;;5.23;70.97
34374;BME280;20637;55.770;37.592;2024-03-02T02:13:50;100995.53;;;5.22;70.77
34374;BME280;20637;55.770;37.592;2024-03-02T02:16:16;100999.28;;;5.19;70.87
34374;BME280;20637;55.770;37.592;2024-03-02T02:18:42;100997.09;;;5.12;70.30
34374;BME280;20637;55.770;37.592;2024-03-02T02:21:08;100998.25;;;5.08;70.29
34374;BME280;20637;55.770;37.592;2024-03-02T02:23:33;101004.34;;;5.10;70.55
34374;BME280;20637;55.770;37.592;2024-03-02T02:25:59;101002.53;;;5.10;70.89
34374;BME280;20637;55.770;37.592;2024-03-02T02:28:25;100997.00;;;5.13;70.75
34374;BME280;20637;55.770;37.592;2024-03-02T02:30:50;101003.03;;;5.17;70.91
34374;BME280;20637;55.770;37.592;2024-03-02T02:33:16;101005.56;;;5.18;70.57
34374;BME280;20637;55.770;37.592;2024-03-02T02:35:42;101009.13;;;5.19;70.74
34374;BME280;20637;55.770;37.592;2024-03-02T02:38:07;101010.94;;;5.18;70.38
34374;BME280;20637;55.770;37.592;2024-03-02T02:40:33;101015.53;;;5.16;70.26
34374;BME280;20637;55.770;37.592;2024-03-02T02:42:59;101012.88;;;5.16;70.25
34374;BME280;20637;55.770;37.592;2024-03-02T02:45:25;101010.19;;;5.16;70.52
34374;BME280;20637;55.770;37.592;2024-03-02T02:47:50;101006.66;;;5.16;70.37
34374;BME280;20637;55.770;37.592;2024-03-02T02:50:16;101008.75;;;5.11;70.20
34374;BME280;20637;55.770;37.592;2024-03-02T02:52:42;101005.44;;;5.07;70.25
34374;BME280;20637;55.770;37.592;2024-03-02T02:55:13;101011.06;;;5.03;70.45
34374;BME280;20637;55.770;37.592;2024-03-02T02:57:40;101010.53;;;4.98;69.98
34374;BME280;20637;55.770;37.592;2024-03-02T03:00:09;101007.94;;;4.96;69.79
34374;BME280;20637;55.770;37.592;2024-03-02T03:02:42;101007.19;;;4.94;69.92
34374;BME280;20637;55.770;37.592;2024-03-02T03:05:09;101005.47;;;4.93;69.99
34374;BME280;20637;55.770;37.592;2024-03-02T03:07:36;101008.44;;;4.89;70.00
34374;BME280;20637;55.770;37.592;2024-03-02T03:10:03;101013.13;;;4.85;70.06
34374;BME280;20637;55.770;37.592;2024-03-02T03:12:30;101020.38;;;4.83;69.92
34374;BME280;20637;55.770;37.592;2024-03-02T03:14:59;101024.91;;;4.83;70.13
34374;BME280;20637;55.770;37.592;2024-03-02T03:17:26;101018.84;;;4.79;69.87
34374;BME280;20637;55.770;37.592;2024-03-02T03:19:52;101021.53;;;4.79;70.03
34374;BME280;20637;55.770;37.592;2024-03-02T03:22:18;101020.69;;;4.78;69.89
34374;BME280;20637;55.770;37.592;2024-03-02T03:24:43;101024.31;;;4.77;70.04
34374;BME280;20637;55.770;37.592;2024-03-02T03:27:10;101018.97;;;4.77;70.57
34374;BME280;20637;55.770;37.592;2024-03-02T03:29:37;101016.19;;;4.79;70.49
34374;BME280;20637;55.770;37.592;2024-03-02T03:32:02;101017.91;;;4.80;70.48
34374;BME280;20637;55.770;37.592;2024-03-02T03:34:32;101023.38;;;4.78;70.50
34374;BME280;20637;55.770;37.592;2024-03-02T03:36:58;101019.91;;;4.76;70.15
34374;BME280;20637;55.770;37.592;2024-03-02T03:39:24;101015.53;;;4.75;70.27
34374;BME280;20637;55.770;37.592;2024-03-02T03:41:49;101007.69;;;4.72;69.99
34374;BME280;20637;55.770;37.592;2024-03-02T03:44:15;100998.16;;;4.68;69.95
34374;BME280;20637;55.770;37.592;2024-03-02T03:46:41;101003.63;;;4.67;69.60
34374;BME280;20637;55.770;37.592;2024-03-02T03:49:07;100999.50;;;4.61;69.77
34374;BME280;20637;55.770;37.592;2024-03-02T03:51:33;101005.06;;;4.58;70.09
34374;BME280;20637;55.770;37.592;2024-03-02T03:53:59;101007.59;;;4.60;69.90
34374;BME280;20637;55.770;37.592;2024-03-02T03:56:25;101007.44;;;4.63;70.48
34374;BME280;20637;55.770;37.592;2024-03-02T03:58:50;101001.13;;;4.64;70.49
34374;BME280;20637;55.770;37.592;2024-03-02T04:01:16;101000.94;;;4.67;69.98
34374;BME280;20637;55.770;37.592;2024-03-02T04:03:42;100997.41;;;4.66;70.50
34374;BME280;20637;55.770;37.592;2024-03-02T04:06:07;100995.75;;;4.64;70.04
34374;BME280;20637;55.770;37.592;2024-03-02T04:08:33;100995.97;;;4.61;70.12
34374;BME280;20637;55.770;37.592;2024-03-02T04:10:58;100998.19;;;4.54;70.03
34374;BME280;20637;55.770;37.592;2024-03-02T04:13:24;101001.13;;;4.50;70.07
34374;BME280;20637;55.770;37.592;2024-03-02T04:15:50;100999.25;;;4.52;70.12
34374;BME280;20637;55.770;37.592;2024-03-02T04:18:15;101001.13;;;4.50;70.00
34374;BME280;20637;55.770;37.592;2024-03-02T04:20:41;101005.63;;;4.49;70.40
34374;BME280;20637;55.770;37.592;2024-03-02T04:23:07;101014.41;;;4.51;70.48
34374;BME280;20637;55.770;37.592;2024-03-02T04:25:33;101005.63;;;4.49;70.23
34374;BME280;20637;55.770;37.592;2024-03-02T04:27:58;101008.28;;;4.49;69.97
34374;BME280;20637;55.770;37.592;2024-03-02T04:30:24;101006.75;;;4.45;70.06
34374;BME280;20637;55.770;37.592;2024-03-02T04:32:50;101007.72;;;4.44;70.22
34374;BME280;20637;55.770;37.592;2024-03-02T04:35:16;101011.38;;;4.43;70.56
34374;BME280;20637;55.770;37.592;2024-03-02T04:37:42;101012.31;;;4.42;70.63
34374;BME280;20637;55.770;37.592;2024-03-02T04:40:08;101009.63;;;4.42;70.87
34374;BME280;20637;55.770;37.592;2024-03-02T04:42:34;101008.78;;;4.42;70.29
34374;BME280;20637;55.770;37.592;2024-03-02T04:45:00;101012.41;;;4.41;70.65
34374;BME280;20637;55.770;37.592;2024-03-02T04:47:26;101013.53;;;4.37;70.86
34374;BME280;20637;55.770;37.592;2024-03-02T04:49:52;101008.50;;;4.32;70.92
34374;BME280;20637;55.770;37.592;2024-03-02T04:52:17;101010.50;;;4.28;70.54
34374;BME280;20637;55.770;37.592;2024-03-02T04:54:43;101016.22;;;4.22;71.00
34374;BME280;20637;55.770;37.592;2024-03-02T04:57:28;101018.13;;;4.20;71.12
34374;BME280;20637;55.770;37.592;2024-03-02T04:59:54;101017.16;;;4.21;70.82
34374;BME280;20637;55.770;37.592;2024-03-02T05:02:20;101015.16;;;4.25;70.99
34374;BME280;20637;55.770;37.592;2024-03-02T05:04:45;101016.69;;;4.29;70.93
34374;BME280;20637;55.770;37.592;2024-03-02T05:07:11;101006.19;;;4.26;71.15
34374;BME280;20637;55.770;37.592;2024-03-02T05:09:37;101014.22;;;4.26;70.84
34374;BME280;20637;55.770;37.592;2024-03-02T05:12:02;101011.06;;;4.33;70.99
34374;BME280;20637;55.770;37.592;2024-03-02T05:14:42;101002.47;;;4.43;71.20
34374;BME280;20637;55.770;37.592;2024-03-02T05:17:08;101003.81;;;4.50;71.16
34374;BME280;20637;55.770;37.592;2024-03-02T05:19:34;101001.59;;;4.56;71.15
34374;BME280;20637;55.770;37.592;2024-03-02T05:21:59;100997.78;;;4.60;71.23
34374;BME280;20637;55.770;37.592;2024-03-02T05:24:25;100998.34;;;4.65;70.64
34374;BME280;20637;55.770;37.592;2024-03-02T05:26:53;101005.97;;;4.71;70.83
34374;BME280;20637;55.770;37.592;2024-03-02T05:29:19;101011.25;;;4.73;70.74
34374;BME280;20637;55.770;37.592;2024-03-02T05:31:44;101011.97;;;4.75;70.95
34374;BME280;20637;55.770;37.592;2024-03-02T05:34:10;101009.22;;;4.76;70.67
34374;BME280;20637;55.770;37.592;2024-03-02T05:36:36;101016.59;;;4.73;70.62
34374;BME280;20637;55.770;37.592;2024-03-02T05:39:04;101008.66;;;4.71;70.83
34374;BME280;20637;55.770;37.592;2024-03-02T05:41:31;101021.06;;;4.72;70.82
34374;BME280;20637;55.770;37.592;2024-03-02T05:43:57;101021.69;;;4.63;70.40
34374;BME280;20637;55.770;37.592;2024-03-02T05:46:22;101019.56;;;4.54;70.16
34374;BME280;20637;55.770;37.592;2024-03-02T05:48:48;101016.31;;;4.49;70.19
34374;BME280;20637;55.770;37.592;2024-03-02T05:51:14;101025.47;;;4.45;70.46
34374;BME280;20637;55.770;37.592;2024-03-02T05:53:39;101017.38;;;4.47;70.51
34374;BME280;20637;55.770;37.592;2024-03-02T05:56:05;101021.00;;;4.46;70.48
34374;BME280;20637;55.770;37.592;2024-03-02T05:58:31;101032.63;;;4.45;70.29
34374;BME280;20637;55.770;37.592;2024-03-02T06:01:18;101029.88;;;4.46;70.49
34374;BME280;20637;55.770;37.592;2024-03-02T06:03:44;101031.03;;;4.42;70.58
34374;BME280;20637;55.770;37.592;2024-03-02T06:06:10;101029.56;;;4.37;70.62
34374;BME280;20637;55.770;37.592;2024-03-02T06:08:36;101030.44;;;4.37;70.65
34374;BME280;20637;55.770;37.592;2024-03-02T06:11:02;101037.53;;;4.38;70.73
34374;BME280;20637;55.770;37.592;2024-03-02T06:13:27;101029.41;;;4.40;70.54
34374;BME280;20637;55.770;37.592;2024-03-02T06:15:53;101037.25;;;4.43;70.52
34374;BME280;20637;55.770;37.592;2024-03-02T06:18:18;101024.44;;;4.48;70.83
34374;BME280;20637;55.770;37.592;2024-03-02T06:20:44;101037.81;;;4.48;70.43
34374;BME280;20637;55.770;37.592;2024-03-02T06:23:10;101036.28;;;4.44;70.87
34374;BME280;20637;55.770;37.592;2024-03-02T06:25:35;101034.66;;;4.41;70.42
34374;BME280;20637;55.770;37.592;2024-03-02T06:28:01;101038.84;;;4.45;70.55
34374;BME280;20637;55.770;37.592;2024-03-02T06:30:27;101026.06;;;4.50;70.89
34374;BME280;20637;55.770;37.592;2024-03-02T06:32:53;101027.88;;;4.50;70.55
34374;BME280;20637;55.770;37.592;2024-03-02T06:35:18;101039.25;;;4.53;71.09
34374;BME280;20637;55.770;37.592;2024-03-02T06:37:44;101030.06;;;4.57;71.09
34374;BME280;20637;55.770;37.592;2024-03-02T06:40:10;101031.78;;;4.58;70.75
34374;BME280;20637;55.770;37.592;2024-03-02T06:42:36;101022.91;;;4.58;70.72
34374;BME280;20637;55.770;37.592;2024-03-02T06:45:02;101026.16;;;4.63;70.74
34374;BME280;20637;55.770;37.592;2024-03-02T06:47:31;101029.31;;;4.69;70.90
34374;BME280;20637;55.770;37.592;2024-03-02T06:49:56;101022.81;;;4.73;71.00
34374;BME280;20637;55.770;37.592;2024-03-02T06:52:23;101022.69;;;4.75;70.54
34374;BME280;20637;55.770;37.592;2024-03-02T06:54:49;101031.09;;;4.69;70.66
34374;BME280;20637;55.770;37.592;2024-03-02T06:57:14;101035.72;;;4.67;70.57
34374;BME280;20637;55.770;37.592;2024-03-02T06:59:42;101030.03;;;4.71;70.66
34374;BME280;20637;55.770;37.592;2024-03-02T07:02:08;101028.72;;;4.78;70.62
34374;BME280;20637;55.770;37.592;2024-03-02T07:04:34;101032.22;;;4.79;70.65
34374;BME280;20637;55.770;37.592;2024-03-02T07:06:59;101034.81;;;4.80;70.46
34374;BME280;20637;55.770;37.592;2024-03-02T07:09:25;101039.88;;;4.85;70.55
34374;BME280;20637;55.770;37.592;2024-03-02T07:11:51;101044.28;;;4.86;70.76
34374;BME280;20637;55.770;37.592;2024-03-02T07:14:17;101043.72;;;4.81;70.28
34374;BME280;20637;55.770;37.592;2024-03-02T07:16:42;101035.69;;;4.81;70.50
34374;BME280;20637;55.770;37.592;2024-03-02T07:19:09;101044.88;;;4.77;70.37
34374;BME280;20637;55.770;37.592;2024-03-02T07:21:34;101040.84;;;4.70;70.54
34374;BME280;20637;55.770;37.592;2024-03-02T07:24:00;101048.09;;;4.68;70.63
34374;BME280;20637;55.770;37.592;2024-03-02T07:26:29;101044.88;;;4.63;70.67
34374;BME280;20637;55.770;37.592;2024-03-02T07:28:56;101036.88;;;4.63;70.79
34374;BME280;20637;55.770;37.592;2024-03-02T07:31:22;101039.81;;;4.58;70.84
34374;BME280;20637;55.770;37.592;2024-03-02T07:33:48;101036.19;;;4.59;70.79
34374;BME280;20637;55.770;37.592;2024-03-02T07:36:14;101033.31;;;4.62;70.76
34374;BME280;20637;55.770;37.592;2024-03-02T07:38:40;101038.88;;;4.59;70.75
34374;BME280;20637;55.770;37.592;2024-03-02T07:41:07;101031.88;;;4.57;70.91
34374;BME280;20637;55.770;37.592;2024-03-02T07:43:33;101029.69;;;4.63;70.83
34374;BME280;20637;55.770;37.592;2024-03-02T07:45:59;101020.69;;;4.64;70.83
34374;BME280;20637;55.770;37.592;2024-03-02T07:48:25;101018.03;;;4.64;70.97
34374;BME280;20637;55.770;37.592;2024-03-02T07:50:51;101027.78;;;4.65;70.73
34374;BME280;20637;55.770;37.592;2024-03-02T07:53:16;101023.00;;;4.70;70.92
34374;BME280;20637;55.770;37.592;2024-03-02T07:55:42;101015.84;;;4.71;70.99
34374;BME280;20637;55.770;37.592;2024-03-02T07:58:08;101023.75;;;4.72;71.05
34374;BME280;20637;55.770;37.592;2024-03-02T08:00:34;101017.34;;;4.75;70.73
34374;BME280;20637;55.770;37.592;2024-03-02T08:03:01;101019.56;;;4.83;70.89
34374;BME280;20637;55.770;37.592;2024-03-02T08:05:26;101011.41;;;4.84;70.41
34374;BME280;20637;55.770;37.592;2024-03-02T08:07:53;101018.56;;;4.84;70.49
34374;BME280;20637;55.770;37.592;2024-03-02T08:10:19;101019.34;;;4.86;70.68
34374;BME280;20637;55.770;37.592;2024-03-02T08:12:45;101016.09;;;4.80;70.49
34374;BME280;20637;55.770;37.592;2024-03-02T08:15:11;101009.69;;;4.83;70.53
34374;BME280;20637;55.770;37.592;2024-03-02T08:17:39;101018.69;;;4.82;70.50
34374;BME280;20637;55.770;37.592;2024-03-02T08:20:11;101018.84;;;4.79;70.13
34374;BME280;20637;55.770;37.592;2024-03-02T08:22:38;101015.34;;;4.78;70.19
34374;BME280;20637;55.770;37.592;2024-03-02T08:25:04;101018.69;;;4.82;70.02
34374;BME280;20637;55.770;37.592;2024-03-02T08:27:31;101020.22;;;4.72;70.05
34374;BME280;20637;55.770;37.592;2024-03-02T08:29:57;101018.59;;;4.69;69.98
34374;BME280;20637;55.770;37.592;2024-03-02T08:32:23;101019.53;;;4.68;69.75
34374;BME280;20637;55.770;37.592;2024-03-02T08:34:49;101021.94;;;4.73;70.00
34374;BME280;20637;55.770;37.592;2024-03-02T08:37:14;101016.88;;;4.68;69.66
34374;BME280;20637;55.770;37.592;2024-03-02T08:39:40;101019.47;;;4.70;69.75
34374;BME280;20637;55.770;37.592;2024-03-02T08:42:06;101019.56;;;4.83;70.17
34374;BME280;20637;55.770;37.592;2024-03-02T08:44:31;101025.53;;;5.00;70.19
34374;BME280;20637;55.770;37.592;2024-03-02T08:46:59;101021.56;;;5.20;70.19
34374;BME280;20637;55.770;37.592;2024-03-02T08:49:24;101021.19;;;5.39;70.14
34374;BME280;20637;55.770;37.592;2024-03-02T08:51:50;101020.97;;;5.42;69.28
34374;BME280;20637;55.770;37.592;2024-03-02T08:54:23;101018.44;;;5.40;68.98
34374;BME280;20637;55.770;37.592;2024-03-02T08:56:49;101013.81;;;5.42;68.92
34374;BME280;20637;55.770;37.592;2024-03-02T08:59:16;101016.94;;;5.49;68.92
34374;BME280;20637;55.770;37.592;2024-03-02T09:01:41;101025.53;;;5.54;69.22
34374;BME280;20637;55.770;37.592;2024-03-02T09:04:08;101021.78;;;5.56;68.99
34374;BME280;20637;55.770;37.592;2024-03-02T09:06:36;101011.63;;;5.61;68.85
34374;BME280;20637;55.770;37.592;2024-03-02T09:09:02;101011.22;;;5.67;68.61
34374;BME280;20637;55.770;37.592;2024-03-02T09:11:28;101009.59;;;5.65;68.35
34374;BME280;20637;55.770;37.592;2024-03-02T09:13:54;101016.25;;;5.72;68.46
34374;BME280;20637;55.770;37.592;2024-03-02T09:16:21;101014.97;;;5.78;68.69
34374;BME280;20637;55.770;37.592;2024-03-02T09:18:47;101012.56;;;5.87;68.48
34374;BME280;20637;55.770;37.592;2024-03-02T09:21:12;101001.75;;;6.01;68.71
34374;BME280;20637;55.770;37.592;2024-03-02T09:23:38;101006.06;;;6.16;68.83
34374;BME280;20637;55.770;37.592;2024-03-02T09:26:05;101013.44;;;6.26;68.21
34374;BME280;20637;55.770;37.592;2024-03-02T09:28:31;101006.25;;;6.26;67.60
34374;BME280;20637;55.770;37.592;2024-03-02T09:30:57;101002.63;;;6.27;67.58
34374;BME280;20637;55.770;37.592;2024-03-02T09:33:22;101001.13;;;6.23;67.43
34374;BME280;20637;55.770;37.592;2024-03-02T09:35:48;101004.56;;;6.25;67.29
34374;BME280;20637;55.770;37.592;2024-03-02T09:38:14;100998.44;;;6.23;67.22
34374;BME280;20637;55.770;37.592;2024-03-02T09:40:41;100998.22;;;6.13;66.93
34374;BME280;20637;55.770;37.592;2024-03-02T09:43:07;100996.19;;;6.04;66.71
34374;BME280;20637;55.770;37.592;2024-03-02T09:45:35;100992.53;;;5.93;66.33
34374;BME280;20637;55.770;37.592;2024-03-02T09:48:01;100995.28;;;5.79;66.33
34374;BME280;20637;55.770;37.592;2024-03-02T09:50:27;101000.28;;;5.70;66.50
34374;BME280;20637;55.770;37.592;2024-03-02T09:52:53;100997.41;;;5.73;66.67
34374;BME280;20637;55.770;37.592;2024-03-02T09:55:20;100998.91;;;5.78;66.80
34374;BME280;20637;55.770;37.592;2024-03-02T09:57:46;100990.34;;;5.85;66.76
34374;BME280;20637;55.770;37.592;2024-03-02T10:00:14;100990.81;;;5.92;66.65
34374;BME280;20637;55.770;37.592;2024-03-02T10:02:43;100997.78;;;5.94;66.48
34374;BME280;20637;55.770;37.592;2024-03-02T10:05:09;100996.63;;;5.98;66.51
34374;BME280;20637;55.770;37.592;2024-03-02T10:07:35;100992.53;;;6.05;66.19
34374;BME280;20637;55.770;37.592;2024-03-02T10:10:15;100989.75;;;5.94;65.71
34374;BME280;20637;55.770;37.592;2024-03-02T10:12:41;100995.16;;;5.80;65.58
34374;BME280;20637;55.770;37.592;2024-03-02T10:15:07;100995.53;;;5.61;65.11
34374;BME280;20637;55.770;37.592;2024-03-02T10:17:34;100987.69;;;5.46;65.37
34374;BME280;20637;55.770;37.592;2024-03-02T10:20:23;100993.25;;;5.43;65.86
34374;BME280;20637;55.770;37.592;2024-03-02T10:22:49;100998.19;;;5.49;66.29
34374;BME280;20637;55.770;37.592;2024-03-02T10:28:00;100995.84;;;5.44;65.98
34374;BME280;20637;55.770;37.592;2024-03-02T10:30:27;101001.28;;;5.43;66.60
34374;BME280;20637;55.770;37.592;2024-03-02T10:32:53;100997.78;;;5.55;66.47
34374;BME280;20637;55.770;37.592;2024-03-02T10:35:21;100997.56;;;5.58;66.67
34374;BME280;20637;55.770;37.592;2024-03-02T10:37:47;101006.25;;;5.61;66.46
34374;BME280;20637;55.770;37.592;2024-03-02T10:40:14;101010.66;;;5.62;66.57
34374;BME280;20637;55.770;37.592;2024-03-02T10:42:41;101008.28;;;5.58;66.49
34374;BME280;20637;55.770;37.592;2024-03-02T10:45:10;101005.97;;;5.66;66.67
34374;BME280;20637;55.770;37.592;2024-03-02T10:47:38;101005.34;;;5.75;66.86
34374;BME280;20637;55.770;37.592;2024-03-02T10:50:07;101010.50;;;5.78;66.97
34374;BME280;20637;55.770;37.592;2024-03-02T10:52:37;101010.91;;;5.85;66.81
34374;BME280;20637;55.770;37.592;2024-03-02T10:55:05;101010.72;;;5.88;66.78
34374;BME280;20637;55.770;37.592;2024-03-02T10:57:40;101010.84;;;5.86;66.71
34374;BME280;20637;55.770;37.592;2024-03-02T11:00:08;101009.97;;;5.86;66.59
34374;BME280;20637;55.770;37.592;2024-03-02T11:02:43;101015.78;;;5.92;66.76
34374;BME280;20637;55.770;37.592;2024-03-02T11:05:12;101021.91;;;5.94;66.52
34374;BME280;20637;55.770;37.592;2024-03-02T11:07:40;101002.59;;;5.89;66.36
34374;BME280;20637;55.770;37.592;2024-03-02T11:10:08;101005.56;;;5.85;66.59
34374;BME280;20637;55.770;37.592;2024-03-02T11:12:38;101007.09;;;5.89;66.74
34374;BME280;20637;55.770;37.592;2024-03-02T11:15:14;101005.63;;;5.97;66.64
34374;BME280;20637;55.770;37.592;2024-03-02T11:17:43;101005.41;;;6.00;66.22
34374;BME280;20637;55.770;37.592;2024-03-02T11:20:09;101011.63;;;6.01;66.11
34374;BME280;20637;55.770;37.592;2024-03-02T11:22:36;101009.03;;;5.99;66.25
34374;BME280;20637;55.770;37.592;2024-03-02T11:25:02;101005.31;;;6.02;66.07
34374;BME280;20637;55.770;37.592;2024-03-02T11:33:00;101007.13;;;6.01;65.46
34374;BME280;20637;55.770;37.592;2024-03-02T11:35:28;100998.63;;;5.95;65.59
34374;BME280;20637;55.770;37.592;2024-03-02T11:37:55;100994.25;;;5.94;65.64
34374;BME280;20637;55.770;37.592;2024-03-02T11:40:28;100990.81;;;5.92;65.76
34374;BME280;20637;55.770;37.592;2024-03-02T11:42:54;100991.88;;;5.89;65.58
34374;BME280;20637;55.770;37.592;2024-03-02T11:45:27;100992.84;;;5.88;65.42
34374;BME280;20637;55.770;37.592;2024-03-02T11:47:54;100987.66;;;5.85;65.58
34374;BME280;20637;55.770;37.592;2024-03-02T11:50:30;100983.91;;;5.75;65.47
34374;BME280;20637;55.770;37.592;2024-03-02T11:52:58;100988.50;;;5.73;65.44
34374;BME280;20637;55.770;37.592;2024-03-02T11:55:25;100992.34;;;5.69;65.20
34374;BME280;20637;55.770;37.592;2024-03-02T11:57:52;100985.59;;;5.63;65.11
34374;BME280;20637;55.770;37.592;2024-03-02T12:00:21;100993.72;;;5.62;65.41
34374;BME280;20637;55.770;37.592;2024-03-02T12:03:09;100989.78;;;5.67;65.53
34374;BME280;20637;55.770;37.592;2024-03-02T12:05:37;100990.09;;;5.75;65.47
34374;BME280;20637;55.770;37.592;2024-03-02T12:08:04;100982.53;;;5.82;65.60
34374;BME280;20637;55.770;37.592;2024-03-02T12:10:32;100987.25;;;5.91;65.61
34374;BME280;20637;55.770;37.592;2024-03-02T12:13:00;100988.25;;;5.90;65.43
34374;BME280;20637;55.770;37.592;2024-03-02T12:15:29;100983.06;;;5.87;65.23
34374;BME280;20637;55.770;37.592;2024-03-02T12:17:57;100983.38;;;5.83;65.24
34374;BME280;20637;55.770;37.592;2024-03-02T12:20:23;100978.34;;;5.78;64.89
34374;BME280;20637;55.770;37.592;2024-03-02T12:22:53;100990.44;;;5.71;64.69
34374;BME280;20637;55.770;37.592;2024-03-02T12:25:20;100991.13;;;5.60;64.54
34374;BME280;20637;55.770;37.592;2024-03-02T12:27:47;100991.66;;;5.53;64.88
34374;BME280;20637;55.770;37.592;2024-03-02T12:30:16;100995.06;;;5.42;64.69
34374;BME280;20637;55.770;37.592;2024-03-02T12:32:42;100994.63;;;5.36;64.69
34374;BME280;20637;55.770;37.592;2024-03-02T12:35:08;100992.34;;;5.29;65.22
34374;BME280;20637;55.770;37.592;2024-03-02T12:37:44;100983.66;;;5.26;65.08
34374;BME280;20637;55.770;37.592;2024-03-02T12:40:11;100988.34;;;5.22;65.25
34374;BME280;20637;55.770;37.592;2024-03-02T12:42:41;100988.47;;;5.21;65.22
34374;BME280;20637;55.770;37.592;2024-03-02T12:45:10;100988.25;;;5.24;65.18
34374;BME280;20637;55.770;37.592;2024-03-02T12:47:36;100983.44;;;5.29;65.50
34374;BME280;20637;55.770;37.592;2024-03-02T12:50:03;100988.63;;;5.32;65.45
34374;BME280;20637;55.770;37.592;2024-03-02T12:52:30;100980.59;;;5.32;65.29
34374;BME280;20637;55.770;37.592;2024-03-02T12:54:58;100985.28;;;5.28;65.33
34374;BME280;20637;55.770;37.592;2024-03-02T12:57:26;100990.09;;;5.23;65.25
34374;BME280;20637;55.770;37.592;2024-03-02T13:00:03;100984.94;;;5.20;64.99